createdAt,value
2018-08-11T00:02:26.881Z,1.60
2018-08-11T00:04:54.312Z,1.40
2018-08-11T00:07:21.747Z,1.50
2018-08-11T00:09:49.119Z,1.15
2018-08-11T00:12:16.538Z,1.42
2018-08-11T00:14:44.074Z,1.50
2018-08-11T00:17:11.440Z,1.40
2018-08-11T00:19:38.814Z,1.75
2018-08-11T00:22:06.296Z,1.30
2018-08-11T00:24:33.614Z,1.20
2018-08-11T00:27:01.011Z,1.37
2018-08-11T00:29:28.360Z,1.60
2018-08-11T00:31:56.036Z,1.70
2018-08-11T00:34:23.401Z,1.52
2018-08-11T00:36:50.907Z,1.55
2018-08-11T00:39:18.333Z,1.30
2018-08-11T00:41:45.702Z,1.50
2018-08-11T00:44:13.088Z,1.80
2018-08-11T00:46:40.431Z,1.40
2018-08-11T00:49:07.759Z,1.32
2018-08-11T00:51:35.461Z,1.40
2018-08-11T00:54:02.819Z,1.45
2018-08-11T00:56:30.326Z,1.30
2018-08-11T00:58:57.674Z,1.65
2018-08-11T01:01:25.078Z,2.05
2018-08-11T01:03:52.454Z,1.40
2018-08-11T01:06:19.862Z,1.30
2018-08-11T01:08:47.251Z,1.60
2018-08-11T01:11:14.638Z,1.40
2018-08-11T01:13:42.041Z,1.35
2018-08-11T01:16:09.448Z,1.32
2018-08-11T01:18:36.802Z,1.50
2018-08-11T01:21:04.204Z,1.77
2018-08-11T01:23:36.043Z,1.30
2018-08-11T01:26:04.199Z,1.30
2018-08-11T01:28:31.570Z,1.70
2018-08-11T01:30:58.963Z,1.60
2018-08-11T01:33:26.295Z,1.70
2018-08-11T01:35:54.486Z,1.70
2018-08-11T01:38:22.627Z,1.60
2018-08-11T01:40:50.012Z,1.50
2018-08-11T01:43:17.519Z,1.35
2018-08-11T01:45:44.894Z,1.75
2018-08-11T01:48:12.306Z,3.25
2018-08-11T01:50:39.690Z,1.42
2018-08-11T01:53:07.066Z,2.08
2018-08-11T01:55:34.386Z,1.60
2018-08-11T01:58:01.857Z,1.50
2018-08-11T02:00:30.078Z,1.60
2018-08-11T02:02:57.463Z,1.40
2018-08-11T02:05:24.778Z,1.45
2018-08-11T02:07:52.195Z,1.80
2018-08-11T02:10:20.692Z,2.35
2018-08-11T02:12:48.502Z,2.60
2018-08-11T02:15:16.202Z,2.55
2018-08-11T02:17:43.601Z,2.30
2018-08-11T02:20:13.727Z,2.00
2018-08-11T02:22:41.824Z,1.72
2018-08-11T02:25:09.971Z,1.90
2018-08-11T02:27:38.690Z,1.50
2018-08-11T02:30:07.998Z,1.70
2018-08-11T02:32:35.609Z,1.35
2018-08-11T02:35:03.983Z,1.20
2018-08-11T02:37:31.649Z,1.20
2018-08-11T02:39:59.684Z,1.67
2018-08-11T02:42:27.937Z,1.22
2018-08-11T02:44:55.840Z,1.15
2018-08-11T02:47:27.460Z,1.10
2018-08-11T02:49:54.900Z,1.00
2018-08-11T02:52:22.275Z,1.37
2018-08-11T02:54:49.641Z,1.20
2018-08-11T02:57:17.412Z,1.40
2018-08-11T02:59:49.195Z,1.25
2018-08-11T03:02:17.033Z,1.30
2018-08-11T03:04:44.379Z,1.20
2018-08-11T03:07:12.619Z,1.15
2018-08-11T03:09:39.971Z,1.32
2018-08-11T03:12:07.882Z,1.22
2018-08-11T03:14:35.356Z,1.12
2018-08-11T03:17:02.719Z,1.20
2018-08-11T03:19:31.106Z,1.20
2018-08-11T03:21:58.421Z,1.10
2018-08-11T03:24:26.547Z,1.15
2018-08-11T03:26:53.952Z,1.20
2018-08-11T03:29:22.550Z,1.20
2018-08-11T03:31:50.080Z,1.10
2018-08-11T03:36:44.202Z,1.27
2018-08-11T03:39:12.607Z,1.55
2018-08-11T03:44:07.564Z,1.42
2018-08-11T03:46:35.755Z,1.20
2018-08-11T03:49:03.726Z,1.25
2018-08-11T03:51:31.132Z,1.50
2018-08-11T03:53:58.542Z,1.50
2018-08-11T03:56:26.346Z,1.20
2018-08-11T03:58:54.361Z,1.30
2018-08-11T04:01:22.193Z,1.40
2018-08-11T04:03:50.217Z,1.50
2018-08-11T04:06:17.586Z,1.57
2018-08-11T04:08:44.943Z,1.50
2018-08-11T04:11:12.294Z,1.50
2018-08-11T04:13:39.701Z,1.60
2018-08-11T04:16:07.404Z,1.52
2018-08-11T04:18:34.924Z,1.77
2018-08-11T04:21:02.325Z,1.65
2018-08-11T04:23:29.654Z,1.77
2018-08-11T04:25:58.198Z,1.60
2018-08-11T04:28:25.549Z,2.20
2018-08-11T04:30:53.568Z,2.00
2018-08-11T04:33:20.972Z,1.98
2018-08-11T04:35:48.324Z,2.12
2018-08-11T04:38:15.688Z,2.62
2018-08-11T04:40:43.032Z,2.05
2018-08-11T04:43:11.015Z,2.02
2018-08-11T04:45:39.154Z,2.20
2018-08-11T04:48:06.530Z,2.45
2018-08-11T04:50:33.809Z,2.65
2018-08-11T04:53:01.122Z,2.77
2018-08-11T04:55:28.734Z,3.22
2018-08-11T04:57:56.022Z,3.20
2018-08-11T05:00:23.325Z,3.40
2018-08-11T05:02:50.638Z,5.08
2018-08-11T05:05:17.954Z,3.60
2018-08-11T05:07:45.238Z,5.05
2018-08-11T05:10:12.588Z,5.40
2018-08-11T05:12:39.945Z,5.45
2018-08-11T05:15:07.662Z,6.35
2018-08-11T05:17:35.372Z,5.67
2018-08-11T05:20:02.672Z,5.97
2018-08-11T05:22:30.003Z,6.12
2018-08-11T05:24:57.272Z,6.05
2018-08-11T05:27:24.566Z,6.12
2018-08-11T05:29:51.894Z,5.50
2018-08-11T05:32:19.238Z,5.45
2018-08-11T05:34:46.581Z,6.30
2018-08-11T05:37:13.918Z,6.58
2018-08-11T05:39:41.197Z,5.85
2018-08-11T05:42:08.535Z,5.67
2018-08-11T05:44:35.886Z,6.17
2018-08-11T05:47:03.231Z,5.67
2018-08-11T05:49:30.914Z,5.60
2018-08-11T05:51:58.222Z,5.25
2018-08-11T05:54:25.527Z,6.00
2018-08-11T05:56:52.815Z,5.40
2018-08-11T05:59:20.220Z,5.40
2018-08-11T06:01:47.521Z,5.70
2018-08-11T06:04:14.927Z,6.87
2018-08-11T06:06:42.327Z,5.83
2018-08-11T06:09:10.444Z,6.03
2018-08-11T06:11:38.074Z,5.45
2018-08-11T06:14:05.398Z,5.58
2018-08-11T06:16:32.922Z,7.03
2018-08-11T06:19:00.282Z,6.80
2018-08-11T06:21:28.540Z,7.37
2018-08-11T06:23:55.854Z,9.18
2018-08-11T06:26:23.224Z,10.10
2018-08-11T06:28:50.529Z,10.72
2018-08-11T06:31:17.928Z,10.35
2018-08-11T06:33:45.234Z,11.50
2018-08-11T06:36:12.731Z,11.60
2018-08-11T06:38:40.041Z,11.75
2018-08-11T06:41:07.470Z,11.45
2018-08-11T06:43:35.182Z,13.00
2018-08-11T06:46:02.475Z,12.80
2018-08-11T06:48:29.769Z,12.30
2018-08-11T06:50:57.162Z,11.43
2018-08-11T06:53:24.496Z,13.32
2018-08-11T06:55:51.878Z,14.47
2018-08-11T06:58:19.182Z,13.55
2018-08-11T07:00:46.632Z,13.15
2018-08-11T07:03:13.990Z,15.10
2018-08-11T07:05:41.309Z,14.40
2018-08-11T07:08:09.303Z,13.60
2018-08-11T07:10:37.020Z,13.33
2018-08-11T07:13:05.003Z,12.50
2018-08-11T07:15:32.641Z,11.70
2018-08-11T07:17:59.946Z,13.75
2018-08-11T07:20:27.234Z,12.67
2018-08-11T07:22:54.618Z,10.40
2018-08-11T07:25:21.907Z,9.90
2018-08-11T07:27:49.187Z,10.60
2018-08-11T07:30:17.586Z,10.63
2018-08-11T07:32:44.823Z,9.33
2018-08-11T07:35:12.114Z,8.53
2018-08-11T07:37:39.870Z,8.70
2018-08-11T07:40:07.233Z,7.83
2018-08-11T07:42:34.647Z,6.80
2018-08-11T07:45:02.377Z,7.60
2018-08-11T07:47:29.662Z,8.10
2018-08-11T07:49:57.722Z,7.87
2018-08-11T07:52:25.008Z,7.50
2018-08-11T07:54:52.310Z,7.40
2018-08-11T07:57:19.607Z,7.00
2018-08-11T07:59:46.883Z,7.50
2018-08-11T08:02:14.196Z,6.70
2018-08-11T08:04:41.656Z,7.00
2018-08-11T08:07:08.938Z,5.60
2018-08-11T08:09:36.226Z,6.43
2018-08-11T08:12:03.521Z,5.50
2018-08-11T08:14:30.815Z,6.53
2018-08-11T08:16:58.146Z,6.67
2018-08-11T08:19:26.030Z,6.57
2018-08-11T08:21:53.365Z,6.40
2018-08-11T08:24:20.742Z,6.23
2018-08-11T08:26:48.122Z,6.47
2018-08-11T08:29:15.389Z,6.10
2018-08-11T08:31:42.991Z,6.20
2018-08-11T08:34:10.291Z,5.70
2018-08-11T08:36:37.575Z,6.30
2018-08-11T08:39:06.805Z,5.60
2018-08-11T08:41:34.117Z,5.60
2018-08-11T08:44:01.471Z,5.47
2018-08-11T08:46:28.772Z,5.77
2018-08-11T08:48:56.125Z,5.47
2018-08-11T08:51:24.090Z,4.33
2018-08-11T08:53:51.447Z,5.07
2018-08-11T08:56:18.762Z,4.43
2018-08-11T08:58:46.466Z,4.70
2018-08-11T09:01:13.804Z,5.20
2018-08-11T09:03:41.098Z,5.30
2018-08-11T09:06:08.452Z,5.27
2018-08-11T09:08:36.289Z,4.87
2018-08-11T09:11:03.655Z,4.07
2018-08-11T09:13:31.026Z,4.60
2018-08-11T09:15:58.508Z,4.70
2018-08-11T09:18:25.830Z,3.87
2018-08-11T09:20:56.117Z,4.97
2018-08-11T09:23:23.397Z,4.83
2018-08-11T09:25:50.723Z,4.17
2018-08-11T09:28:18.087Z,5.17
2018-08-11T09:30:45.391Z,4.90
2018-08-11T09:33:12.795Z,4.93
2018-08-11T09:35:40.085Z,4.47
2018-08-11T09:38:08.018Z,4.33
2018-08-11T09:40:35.422Z,4.53
2018-08-11T09:43:02.715Z,4.17
2018-08-11T09:45:30.030Z,4.27
2018-08-11T09:47:58.124Z,4.07
2018-08-11T09:50:25.446Z,3.40
2018-08-11T09:52:52.775Z,3.93
2018-08-11T09:55:20.066Z,3.30
2018-08-11T09:57:47.974Z,3.23
2018-08-11T10:00:19.607Z,3.00
2018-08-11T10:02:46.951Z,2.60
2018-08-11T10:05:14.332Z,3.00
2018-08-11T10:07:42.315Z,3.30
2018-08-11T10:10:09.893Z,2.63
2018-08-11T10:12:41.390Z,3.13
2018-08-11T10:15:09.404Z,2.70
2018-08-11T10:17:36.725Z,2.67
2018-08-11T10:20:05.578Z,2.80
2018-08-11T10:22:32.946Z,3.07
2018-08-11T10:25:00.939Z,2.60
2018-08-11T10:27:28.750Z,2.37
2018-08-11T10:29:56.562Z,2.70
2018-08-11T10:32:24.089Z,2.03
2018-08-11T10:34:51.422Z,2.27
2018-08-11T10:37:19.126Z,2.10
2018-08-11T10:39:46.458Z,1.90
2018-08-11T10:42:13.809Z,2.97
2018-08-11T10:44:41.243Z,2.40
2018-08-11T10:47:08.800Z,2.20
2018-08-11T10:49:40.126Z,1.97
2018-08-11T10:52:07.505Z,2.70
2018-08-11T10:54:34.886Z,2.47
2018-08-11T10:57:02.247Z,2.30
2018-08-11T10:59:29.597Z,2.40
2018-08-11T11:01:58.163Z,1.87
2018-08-11T11:04:26.282Z,2.87
2018-08-11T11:06:54.037Z,2.27
2018-08-11T11:09:21.592Z,1.80
2018-08-11T11:11:50.295Z,3.57
2018-08-11T11:14:17.766Z,4.00
2018-08-11T11:16:45.138Z,4.10
2018-08-11T11:21:39.275Z,2.70
2018-08-11T11:24:13.656Z,2.20
2018-08-11T11:26:40.987Z,1.87
2018-08-11T11:29:08.442Z,1.90
2018-08-11T11:31:36.378Z,2.07
2018-08-11T11:34:04.160Z,1.70
2018-08-11T11:36:31.507Z,1.67
2018-08-11T11:39:04.523Z,1.73
2018-08-11T11:41:31.903Z,1.60
2018-08-11T11:43:59.639Z,2.60
2018-08-11T11:46:28.635Z,3.53
2018-08-11T11:48:55.994Z,2.70
2018-08-11T11:51:23.334Z,2.93
2018-08-11T11:53:50.660Z,6.20
2018-08-11T11:56:19.031Z,2.73
2018-08-11T11:58:46.582Z,4.43
2018-08-11T12:03:40.779Z,3.23
2018-08-11T12:06:08.131Z,3.07
2018-08-11T12:08:35.557Z,2.20
2018-08-11T12:11:02.890Z,2.43
2018-08-11T12:13:30.213Z,2.40
2018-08-11T12:15:57.548Z,2.50
2018-08-11T12:18:25.230Z,2.47
2018-08-11T12:20:53.442Z,2.20
2018-08-11T12:23:20.846Z,2.30
2018-08-11T12:25:48.195Z,2.00
2018-08-11T12:28:19.565Z,2.60
2018-08-11T12:33:13.677Z,2.27
2018-08-11T12:35:41.107Z,2.30
2018-08-11T12:38:08.437Z,2.30
2018-08-11T12:40:35.789Z,1.90
2018-08-11T12:43:03.518Z,2.43
2018-08-11T12:45:30.942Z,2.10
2018-08-11T12:47:58.258Z,3.10
2018-08-11T12:50:25.622Z,3.00
2018-08-11T12:52:52.986Z,2.50
2018-08-11T12:55:20.366Z,2.37
2018-08-11T12:57:47.743Z,2.17
2018-08-11T13:00:15.034Z,1.70
2018-08-11T13:02:42.362Z,1.90
2018-08-11T13:05:09.775Z,2.00
2018-08-11T13:07:37.099Z,1.87
2018-08-11T13:10:05.027Z,1.43
2018-08-11T13:12:32.666Z,2.57
2018-08-11T13:15:00.425Z,1.83
2018-08-11T13:17:27.852Z,1.97
2018-08-11T13:19:55.288Z,2.33
2018-08-11T13:22:22.911Z,2.13
2018-08-11T13:24:50.306Z,1.80
2018-08-11T13:27:17.606Z,1.80
2018-08-11T13:29:44.906Z,1.90
2018-08-11T13:32:12.207Z,1.80
2018-08-11T13:34:39.510Z,2.27
2018-08-11T13:37:07.620Z,2.47
2018-08-11T13:39:34.875Z,1.80
2018-08-11T13:42:02.193Z,1.50
2018-08-11T13:44:29.486Z,1.57
2018-08-11T13:46:56.742Z,1.67
2018-08-11T13:49:24.066Z,2.60
2018-08-11T13:51:51.351Z,1.70
2018-08-11T13:54:18.709Z,1.80
2018-08-11T13:56:45.958Z,2.13
2018-08-11T13:59:13.267Z,2.17
2018-08-11T14:01:40.563Z,1.77
2018-08-11T14:04:07.868Z,2.00
2018-08-11T14:06:35.318Z,1.90
2018-08-11T14:09:02.678Z,2.80
2018-08-11T14:11:29.982Z,1.83
2018-08-11T14:13:57.301Z,1.63
2018-08-11T14:16:25.433Z,2.10
2018-08-11T14:18:53.025Z,1.80
2018-08-11T14:21:20.361Z,2.03
2018-08-11T14:23:48.227Z,1.33
2018-08-11T14:26:15.642Z,1.87
2018-08-11T14:28:43.050Z,2.10
2018-08-11T14:31:11.330Z,1.70
2018-08-11T14:33:38.691Z,3.03
2018-08-11T14:36:06.108Z,1.70
2018-08-11T14:38:33.528Z,2.60
2018-08-11T14:41:00.832Z,1.90
2018-08-11T14:43:28.134Z,1.83
2018-08-11T14:45:56.194Z,1.83
2018-08-11T14:48:23.498Z,1.70
2018-08-11T14:50:50.797Z,1.80
2018-08-11T14:53:18.116Z,1.93
2018-08-11T14:55:45.366Z,1.50
2018-08-11T14:58:12.773Z,1.80
2018-08-11T15:00:40.084Z,1.50
2018-08-11T15:03:07.430Z,1.73
2018-08-11T15:05:34.773Z,1.40
2018-08-11T15:08:02.086Z,1.80
2018-08-11T15:10:29.583Z,1.17
2018-08-11T15:12:56.858Z,1.40
2018-08-11T15:15:24.150Z,1.30
2018-08-11T15:17:51.410Z,2.17
2018-08-11T15:20:18.759Z,1.83
2018-08-11T15:22:46.367Z,1.87
2018-08-11T15:25:13.673Z,2.00
2018-08-11T15:27:40.979Z,1.47
2018-08-11T15:30:09.539Z,1.30
2018-08-11T15:32:37.128Z,1.63
2018-08-11T15:35:05.034Z,1.70
2018-08-11T15:37:32.370Z,1.33
2018-08-11T15:39:59.654Z,1.70
2018-08-11T15:42:26.950Z,1.50
2018-08-11T15:44:54.271Z,1.37
2018-08-11T15:47:21.552Z,1.60
2018-08-11T15:49:48.892Z,1.40
2018-08-11T15:52:16.171Z,1.83
2018-08-11T15:54:43.471Z,1.60
2018-08-11T15:57:10.777Z,1.53
2018-08-11T15:59:38.103Z,1.73
2018-08-11T16:02:05.522Z,1.60
2018-08-11T16:04:32.898Z,1.93
2018-08-11T16:07:00.258Z,1.33
2018-08-11T16:09:28.235Z,1.60
2018-08-11T16:11:55.637Z,1.70
2018-08-11T16:14:23.036Z,1.63
2018-08-11T16:16:50.358Z,1.60
2018-08-11T16:19:17.941Z,1.43
2018-08-11T16:21:45.416Z,1.90
2018-08-11T16:24:12.772Z,1.60
2018-08-11T16:26:40.251Z,1.57
2018-08-11T16:29:07.572Z,1.90
2018-08-11T16:31:35.030Z,1.90
2018-08-11T16:34:03.149Z,1.87
2018-08-11T16:36:30.631Z,1.80
2018-08-11T16:38:58.034Z,1.40
2018-08-11T16:41:26.001Z,1.27
2018-08-11T16:43:53.626Z,1.30
2018-08-11T16:46:21.413Z,1.60
2018-08-11T16:48:48.938Z,1.30
2018-08-11T16:51:16.321Z,1.70
2018-08-11T16:53:43.750Z,1.50
2018-08-11T16:56:11.070Z,1.20
2018-08-11T16:58:40.314Z,1.40
2018-08-11T17:01:07.619Z,1.53
2018-08-11T17:03:35.719Z,1.43
2018-08-11T17:06:03.484Z,1.10
2018-08-11T17:08:30.934Z,1.20
2018-08-11T17:10:58.273Z,1.30
2018-08-11T17:13:26.128Z,1.13
2018-08-11T17:15:53.494Z,0.97
2018-08-11T17:18:20.908Z,1.50
2018-08-11T17:20:48.287Z,1.00
2018-08-11T17:23:15.587Z,1.27
2018-08-11T17:25:42.958Z,0.90
2018-08-11T17:28:10.306Z,1.07
2018-08-11T17:30:38.346Z,1.20
2018-08-11T17:33:05.835Z,0.90
2018-08-11T17:35:33.243Z,1.10
2018-08-11T17:38:00.586Z,1.10
2018-08-11T17:40:28.474Z,1.00
2018-08-11T17:42:55.813Z,1.00
2018-08-11T17:45:23.201Z,1.17
2018-08-11T17:47:50.598Z,0.90
2018-08-11T17:50:18.439Z,1.00
2018-08-11T17:52:45.847Z,1.30
2018-08-11T17:55:13.262Z,1.03
2018-08-11T17:57:41.139Z,1.60
2018-08-11T18:00:08.583Z,1.00
2018-08-11T18:02:36.052Z,0.80
2018-08-11T18:05:04.130Z,1.10
2018-08-11T18:07:31.493Z,1.20
2018-08-11T18:09:58.926Z,1.80
2018-08-11T18:12:26.231Z,1.30
2018-08-11T18:14:53.722Z,1.07
2018-08-11T18:17:21.952Z,1.20
2018-08-11T18:19:49.303Z,1.30
2018-08-11T18:22:16.847Z,1.10
2018-08-11T18:24:44.865Z,1.70
2018-08-11T18:27:12.279Z,1.10
2018-08-11T18:29:39.721Z,1.10
2018-08-11T18:32:07.799Z,1.20
2018-08-11T18:34:35.541Z,1.10
2018-08-11T18:37:03.029Z,1.20
2018-08-11T18:39:30.377Z,1.20
2018-08-11T18:41:57.879Z,1.20
2018-08-11T18:44:25.277Z,1.60
2018-08-11T18:46:52.641Z,1.10
2018-08-11T18:49:20.059Z,1.20
2018-08-11T18:51:47.440Z,1.20
2018-08-11T18:54:14.826Z,1.90
2018-08-11T18:56:42.220Z,1.30
2018-08-11T18:59:09.538Z,1.13
2018-08-11T19:01:37.299Z,1.23
2018-08-11T19:04:04.736Z,1.40
2018-08-11T19:06:32.713Z,1.60
2018-08-11T19:09:00.161Z,1.40
2018-08-11T19:11:28.538Z,1.13
2018-08-11T19:14:01.105Z,1.00
2018-08-11T19:16:28.520Z,1.33
2018-08-11T19:18:56.016Z,1.60
2018-08-11T19:21:23.445Z,1.23
2018-08-11T19:23:51.491Z,1.30
2018-08-11T19:26:19.036Z,1.10
2018-08-11T19:28:47.573Z,1.50
2018-08-11T19:31:14.939Z,1.20
2018-08-11T19:33:42.371Z,1.57
2018-08-11T19:38:41.863Z,1.70
2018-08-11T19:41:09.448Z,1.70
2018-08-11T19:43:37.087Z,1.90
2018-08-11T19:46:06.614Z,2.17
2018-08-11T19:48:34.829Z,1.80
2018-08-11T19:51:02.201Z,2.23
2018-08-11T19:53:34.120Z,2.00
2018-08-11T19:56:03.271Z,1.83
2018-08-11T19:58:31.597Z,1.50
2018-08-11T20:00:59.538Z,2.10
2018-08-11T20:03:26.959Z,1.82
2018-08-11T20:05:55.355Z,2.33
2018-08-11T20:08:22.807Z,2.47
2018-08-11T20:10:50.242Z,2.15
2018-08-11T20:13:17.762Z,2.45
2018-08-11T20:15:46.000Z,1.80
2018-08-11T20:18:13.387Z,1.70
2018-08-11T20:20:44.920Z,1.45
2018-08-11T20:23:16.689Z,2.08
2018-08-11T20:25:45.007Z,1.40
2018-08-11T20:28:18.029Z,2.00
2018-08-11T20:30:45.918Z,2.60
2018-08-11T20:33:13.962Z,3.17
2018-08-11T20:35:42.543Z,3.50
2018-08-11T20:38:12.495Z,2.70
2018-08-11T20:40:44.634Z,2.55
2018-08-11T20:45:43.678Z,2.30
2018-08-11T20:48:11.169Z,2.65
2018-08-11T20:50:52.164Z,2.33
2018-08-11T20:53:20.201Z,2.30
2018-08-11T20:55:47.740Z,2.35
2018-08-11T20:58:15.231Z,2.67
2018-08-11T21:03:13.840Z,2.58
2018-08-11T21:05:41.169Z,2.40
2018-08-11T21:08:09.240Z,2.40
2018-08-11T21:10:36.759Z,2.60
2018-08-11T21:13:08.575Z,2.50
2018-08-11T21:15:36.040Z,2.40
2018-08-11T21:18:03.542Z,2.20
2018-08-11T21:20:30.970Z,2.37
2018-08-11T21:22:59.065Z,3.25
2018-08-11T21:25:26.540Z,2.17
2018-08-11T21:27:54.168Z,3.00
2018-08-11T21:30:26.866Z,2.30
2018-08-11T21:32:54.283Z,2.50
2018-08-11T21:37:48.455Z,2.30
2018-08-11T21:40:16.202Z,2.72
2018-08-11T21:42:44.021Z,2.35
2018-08-11T21:45:12.181Z,2.50
2018-08-11T21:47:40.658Z,2.35
2018-08-11T21:50:08.668Z,2.60
2018-08-11T21:52:37.867Z,2.40
2018-08-11T21:55:05.960Z,2.10
2018-08-11T21:57:33.875Z,2.40
2018-08-11T22:00:01.406Z,2.42
2018-08-11T22:02:28.771Z,2.20
2018-08-11T22:04:56.137Z,2.20
2018-08-11T22:07:23.740Z,2.10
2018-08-11T22:09:51.319Z,2.50
2018-08-11T22:12:18.983Z,2.05
2018-08-11T22:14:50.258Z,2.52
2018-08-11T22:17:18.217Z,2.05
2018-08-11T22:19:46.102Z,1.90
2018-08-11T22:22:13.550Z,1.85
2018-08-11T22:24:45.466Z,1.90
2018-08-11T22:27:13.206Z,2.27
2018-08-11T22:29:41.615Z,1.98
2018-08-11T22:32:09.026Z,1.85
2018-08-11T22:34:37.151Z,1.77
2018-08-11T22:37:04.762Z,2.00
2018-08-11T22:39:32.887Z,1.87
2018-08-11T22:42:01.613Z,2.12
2018-08-11T22:44:29.815Z,1.90
2018-08-11T22:47:01.776Z,2.20
2018-08-11T22:49:29.115Z,1.90
2018-08-11T22:51:56.522Z,1.60
2018-08-11T22:54:23.945Z,1.85
2018-08-11T22:56:52.864Z,1.80
2018-08-11T22:59:20.467Z,1.85
2018-08-11T23:01:52.786Z,1.90
2018-08-11T23:04:20.279Z,1.90
2018-08-11T23:06:47.754Z,1.50
2018-08-11T23:09:16.789Z,1.70
2018-08-11T23:11:44.524Z,2.00
2018-08-11T23:14:11.954Z,2.12
2018-08-11T23:16:41.221Z,2.05
2018-08-11T23:19:08.650Z,1.92
2018-08-11T23:21:36.057Z,2.05
2018-08-11T23:24:03.492Z,1.98
2018-08-11T23:26:31.446Z,2.20
2018-08-11T23:28:58.852Z,1.80
2018-08-11T23:31:26.527Z,1.90
2018-08-11T23:33:53.962Z,1.75
2018-08-11T23:36:21.358Z,1.67
2018-08-11T23:38:48.730Z,1.90
2018-08-11T23:41:16.256Z,1.80
2018-08-11T23:43:43.641Z,1.77
2018-08-11T23:46:11.061Z,2.20
2018-08-11T23:48:38.479Z,2.33
2018-08-11T23:51:05.917Z,1.95
2018-08-11T23:53:33.406Z,1.70
2018-08-11T23:56:00.810Z,1.80
2018-08-11T23:58:28.700Z,1.92
